LTBSLCLK

Guest
Details From LTBS - DALAMAN
To LCLK - Larnaca
Flight Number -
Tags generated
Created
Modified
Stats Distance 265 nm / 492 km
Max Altitude 29,600 ft / 9,022 m
Waypoints 5
Social Downloads 0
Likes 0
Share VATSIM

Download

Looking for another format? Having issues loading an existing format? Contact us
Advertisement - Login to hide

Notes

Basic altitude profile: - Ascent Rate: 2500ft/min - Ascent Speed: 250kts - Cruise Altitude: 35000ft - Cruise Speed: 420kts - Descent Rate: 1500ft/min - Descent Speed: 250kts Options: - Use NATs: yes - Use PACOTS: yes - Use low airways: yes - Use high airways: yes

Route

LTBS EVENO UM601 DASNI M601 DAROS LCLK

ID Type Via Altitude Latitude Longitude Leg Dist Tot Dist Heading (true) Name
O LTBS APT - 0 ft / 0 m 36.71319˚ 28.79251˚ - 0 nm - DALAMAN
EVENO FIX - 27,100 ft / 8,260 m 35.83333˚ 30.00000˚ 78 nm 78 nm 132° / 132° -
DASNI FIX UM601 (AWY-HI) 29,600 ft / 9,022 m 35.61667˚ 30.85000˚ 43 nm 122 nm 107° / 108° -
DAROS FIX M601 (AWY-LO) 8,000 ft / 2,438 m 35.01167˚ 33.14833˚ 118 nm 240 nm 107° / 109° -
O LCLK APT - 0 ft / 0 m 34.87512˚ 33.62483˚ 24 nm 265 nm 109° / 109° Larnaca

Altitude Profile

Advertisement - Login to hide

Weather


0- 5 10 15 20 25 30 35+ Temperature / ° C

Clouds and Precipitation
Forecast for 2017-12-19 00:00 UTC. Updated an hour ago

Ground ~20,000 ft ~40,000 ft Winds

LTBS

Details ICAO LTBS (DLM)
Name DALAMAN
Region Turkey
Timezone Europe/Istanbul (UTC+3.0)
Stats Elevation 20 ft / 6 m (AMSL)
Location 36.713189° 28.792513°
Runways 1
Magnetic Variation 4.881° E

METAR

LTBS 182020Z 03005KT 9999 SCT025 BKN090 12/11 Q1019 NOSIG

Decode

TAF

Not found

Departure Runways

ID Width Length Bearing (true) Bearing (mag) Surface Threshold Offset Overrun Length
01 148 ft / 45 m 9,851 ft / 3,003 m 15.24° 10.36° Concrete 0 ft / 0 m 197 ft / 60 m
19 148 ft / 45 m 9,851 ft / 3,003 m 195.25° 190.37° Concrete 0 ft / 0 m 197 ft / 60 m

LCLK

Details ICAO LCLK (LCA)
Name Larnaca
Region Cyprus
Timezone Asia/Nicosia (UTC+2.0)
Stats Elevation 8 ft / 2 m (AMSL)
Location 34.875115° 33.624832°
Runways 1
Magnetic Variation 4.991° E

METAR

LCLK 182030Z 01001KT 9999 FEW020 15/15 Q1019 NOSIG

Decode

TAF

TAF LCLK 181730Z 1818/1918 32006KT 9999 FEW020 SCT060 PROB30 1901/1904 5000 BR BECMG 1906/1909 35010KT BECMG 1907/1910 05009KT

Decode

Destination Runways

ID Width Length Bearing (true) Bearing (mag) Surface Threshold Offset Overrun Length
04 148 ft / 45 m 9,771 ft / 2,978 m 45.15° 40.16° Asphalt 0 ft / 0 m 210 ft / 64 m
22 148 ft / 45 m 9,771 ft / 2,978 m 225.17° 220.18° Asphalt 575 ft / 175 m 0 ft / 0 m

Approach Navaids

Runway Type Ident Frequency Range Bearing (true) Bearing (mag) Slope Elevation
22 Localiser ILC 110.30 MHz 18 nm / 33 km 225.17° 220.18° - 8 ft / 2 m (AMSL)
22 Glidescope ILC 110.30 MHz 10 nm / 19 km 225.16° 220.17° 2.75° 24 ft / 7 m (AMSL)
22 DME ILC 110.30 MHz 18 nm / 33 km - - - 20 ft / 6 m (AMSL)

Popular Alternatives